sensor_id;sensor_type;location;lat;lon;timestamp;P1;durP1;ratioP1;P2;durP2;ratioP2
61903;SDS011;47857;52.270;6.804;2022-08-11T00:01:05;5.50;;;2.15;;
61903;SDS011;47857;52.270;6.804;2022-08-11T00:03:33;9.23;;;2.50;;
61903;SDS011;47857;52.270;6.804;2022-08-11T00:06:00;5.82;;;2.13;;
61903;SDS011;47857;52.270;6.804;2022-08-11T00:08:26;4.50;;;2.22;;
61903;SDS011;47857;52.270;6.804;2022-08-11T00:11:01;6.38;;;2.03;;
61903;SDS011;47857;52.270;6.804;2022-08-11T00:16:10;2.85;;;2.10;;
61903;SDS011;47857;52.270;6.804;2022-08-11T00:18:39;5.82;;;2.50;;
61903;SDS011;47857;52.270;6.804;2022-08-11T00:21:05;3.75;;;2.10;;
61903;SDS011;47857;52.270;6.804;2022-08-11T00:23:31;4.72;;;2.40;;
61903;SDS011;47857;52.270;6.804;2022-08-11T00:25:57;5.28;;;2.50;;
61903;SDS011;47857;52.270;6.804;2022-08-11T00:30:56;4.72;;;2.60;;
61903;SDS011;47857;52.270;6.804;2022-08-11T00:33:25;4.60;;;2.50;;
61903;SDS011;47857;52.270;6.804;2022-08-11T00:35:58;4.43;;;2.42;;
61903;SDS011;47857;52.270;6.804;2022-08-11T00:38:27;10.38;;;2.40;;
61903;SDS011;47857;52.270;6.804;2022-08-11T00:41:08;2.95;;;2.17;;
61903;SDS011;47857;52.270;6.804;2022-08-11T00:46:28;5.72;;;2.60;;
61903;SDS011;47857;52.270;6.804;2022-08-11T01:18:43;7.45;;;2.90;;
61903;SDS011;47857;52.270;6.804;2022-08-11T01:27:20;4.88;;;2.53;;
61903;SDS011;47857;52.270;6.804;2022-08-11T01:35:34;4.28;;;2.75;;
61903;SDS011;47857;52.270;6.804;2022-08-11T01:46:49;4.65;;;3.20;;
61903;SDS011;47857;52.270;6.804;2022-08-11T01:49:34;5.45;;;3.10;;
61903;SDS011;47857;52.270;6.804;2022-08-11T01:54:36;4.63;;;2.90;;
61903;SDS011;47857;52.270;6.804;2022-08-11T02:00:09;7.73;;;3.30;;
61903;SDS011;47857;52.270;6.804;2022-08-11T02:25:30;8.45;;;4.50;;
61903;SDS011;47857;52.270;6.804;2022-08-11T02:28:04;9.35;;;4.10;;
61903;SDS011;47857;52.270;6.804;2022-08-11T02:33:21;4.75;;;3.55;;
61903;SDS011;47857;52.270;6.804;2022-08-11T02:36:02;4.63;;;3.60;;
61903;SDS011;47857;52.270;6.804;2022-08-11T02:47:35;6.00;;;4.00;;
61903;SDS011;47857;52.270;6.804;2022-08-11T02:50:25;7.53;;;4.00;;
61903;SDS011;47857;52.270;6.804;2022-08-11T02:52:54;5.78;;;4.63;;
61903;SDS011;47857;52.270;6.804;2022-08-11T02:55:31;7.30;;;4.07;;
61903;SDS011;47857;52.270;6.804;2022-08-11T02:58:16;6.50;;;4.63;;
61903;SDS011;47857;52.270;6.804;2022-08-11T03:01:02;6.03;;;4.28;;
61903;SDS011;47857;52.270;6.804;2022-08-11T03:03:43;5.03;;;4.28;;
61903;SDS011;47857;52.270;6.804;2022-08-11T03:09:16;6.20;;;4.65;;
61903;SDS011;47857;52.270;6.804;2022-08-11T03:17:29;6.30;;;4.03;;
61903;SDS011;47857;52.270;6.804;2022-08-11T03:25:18;10.50;;;4.10;;
61903;SDS011;47857;52.270;6.804;2022-08-11T03:27:51;7.47;;;4.20;;
61903;SDS011;47857;52.270;6.804;2022-08-11T03:30:27;6.07;;;4.45;;
61903;SDS011;47857;52.270;6.804;2022-08-11T03:36:13;5.63;;;4.07;;
61903;SDS011;47857;52.270;6.804;2022-08-11T03:41:34;6.20;;;4.47;;
61903;SDS011;47857;52.270;6.804;2022-08-11T03:55:18;8.48;;;4.30;;
61903;SDS011;47857;52.270;6.804;2022-08-11T03:58:11;5.90;;;4.43;;
61903;SDS011;47857;52.270;6.804;2022-08-11T04:46:27;17.65;;;8.82;;
61903;SDS011;47857;52.270;6.804;2022-08-11T04:52:27;7.32;;;5.25;;
61903;SDS011;47857;52.270;6.804;2022-08-11T04:58:29;7.75;;;4.82;;
61903;SDS011;47857;52.270;6.804;2022-08-11T05:01:54;8.35;;;4.68;;
61903;SDS011;47857;52.270;6.804;2022-08-11T05:07:39;7.55;;;4.10;;
61903;SDS011;47857;52.270;6.804;2022-08-11T05:13:07;6.63;;;3.92;;
61903;SDS011;47857;52.270;6.804;2022-08-11T05:15:52;5.70;;;4.10;;
61903;SDS011;47857;52.270;6.804;2022-08-11T05:18:45;7.18;;;3.85;;
61903;SDS011;47857;52.270;6.804;2022-08-11T05:21:34;8.68;;;4.05;;
61903;SDS011;47857;52.270;6.804;2022-08-11T05:24:20;8.43;;;4.68;;
61903;SDS011;47857;52.270;6.804;2022-08-11T05:27:06;11.25;;;5.15;;
61903;SDS011;47857;52.270;6.804;2022-08-11T05:32:41;7.72;;;4.60;;
61903;SDS011;47857;52.270;6.804;2022-08-11T05:35:28;6.72;;;3.88;;
61903;SDS011;47857;52.270;6.804;2022-08-11T05:37:56;6.22;;;4.10;;
61903;SDS011;47857;52.270;6.804;2022-08-11T05:40:46;6.63;;;4.03;;
61903;SDS011;47857;52.270;6.804;2022-08-11T05:43:38;7.95;;;3.95;;
61903;SDS011;47857;52.270;6.804;2022-08-11T05:46:24;7.20;;;4.13;;
61903;SDS011;47857;52.270;6.804;2022-08-11T05:49:10;20.80;;;5.75;;
61903;SDS011;47857;52.270;6.804;2022-08-11T05:51:54;19.23;;;5.53;;
61903;SDS011;47857;52.270;6.804;2022-08-11T05:54:39;17.55;;;5.57;;
61903;SDS011;47857;52.270;6.804;2022-08-11T05:57:28;19.70;;;5.80;;
61903;SDS011;47857;52.270;6.804;2022-08-11T06:00:02;16.83;;;5.32;;
61903;SDS011;47857;52.270;6.804;2022-08-11T06:02:31;12.73;;;5.55;;
61903;SDS011;47857;52.270;6.804;2022-08-11T06:04:57;12.20;;;4.70;;
61903;SDS011;47857;52.270;6.804;2022-08-11T06:07:28;10.02;;;4.53;;
61903;SDS011;47857;52.270;6.804;2022-08-11T06:09:55;6.32;;;4.47;;
61903;SDS011;47857;52.270;6.804;2022-08-11T06:12:22;7.90;;;4.90;;
61903;SDS011;47857;52.270;6.804;2022-08-11T06:14:56;6.00;;;4.13;;
61903;SDS011;47857;52.270;6.804;2022-08-11T06:17:23;8.23;;;4.60;;
61903;SDS011;47857;52.270;6.804;2022-08-11T06:19:50;7.30;;;4.45;;
61903;SDS011;47857;52.270;6.804;2022-08-11T06:22:21;8.45;;;3.83;;
61903;SDS011;47857;52.270;6.804;2022-08-11T06:24:52;7.20;;;3.50;;
61903;SDS011;47857;52.270;6.804;2022-08-11T06:27:21;7.65;;;3.17;;
61903;SDS011;47857;52.270;6.804;2022-08-11T06:29:48;5.10;;;3.42;;
61903;SDS011;47857;52.270;6.804;2022-08-11T06:32:15;6.55;;;2.75;;
61903;SDS011;47857;52.270;6.804;2022-08-11T06:37:39;5.25;;;2.70;;
61903;SDS011;47857;52.270;6.804;2022-08-11T06:40:15;8.52;;;2.97;;
61903;SDS011;47857;52.270;6.804;2022-08-11T06:42:52;6.38;;;2.97;;
61903;SDS011;47857;52.270;6.804;2022-08-11T06:45:23;4.00;;;2.47;;
61903;SDS011;47857;52.270;6.804;2022-08-11T06:47:54;3.58;;;2.67;;
61903;SDS011;47857;52.270;6.804;2022-08-11T06:50:25;8.75;;;2.75;;
61903;SDS011;47857;52.270;6.804;2022-08-11T06:53:14;8.52;;;2.78;;
61903;SDS011;47857;52.270;6.804;2022-08-11T06:55:42;8.85;;;2.55;;
61903;SDS011;47857;52.270;6.804;2022-08-11T06:58:30;6.70;;;2.60;;
61903;SDS011;47857;52.270;6.804;2022-08-11T07:02:10;6.28;;;2.38;;
61903;SDS011;47857;52.270;6.804;2022-08-11T07:04:20;4.10;;;2.47;;
61903;SDS011;47857;52.270;6.804;2022-08-11T07:06:56;4.78;;;2.40;;
61903;SDS011;47857;52.270;6.804;2022-08-11T07:10:09;7.57;;;2.20;;
61903;SDS011;47857;52.270;6.804;2022-08-11T07:13:14;4.88;;;2.40;;
61903;SDS011;47857;52.270;6.804;2022-08-11T07:15:59;5.43;;;2.30;;
61903;SDS011;47857;52.270;6.804;2022-08-11T07:18:27;7.05;;;2.20;;
61903;SDS011;47857;52.270;6.804;2022-08-11T07:21:19;5.47;;;2.22;;
61903;SDS011;47857;52.270;6.804;2022-08-11T07:24:08;4.95;;;2.10;;
61903;SDS011;47857;52.270;6.804;2022-08-11T07:26:56;3.55;;;1.80;;
61903;SDS011;47857;52.270;6.804;2022-08-11T07:29:41;4.47;;;1.90;;
61903;SDS011;47857;52.270;6.804;2022-08-11T07:32:12;5.43;;;2.40;;
61903;SDS011;47857;52.270;6.804;2022-08-11T07:34:41;3.25;;;1.70;;
61903;SDS011;47857;52.270;6.804;2022-08-11T07:37:12;5.93;;;1.80;;
61903;SDS011;47857;52.270;6.804;2022-08-11T07:39:42;4.88;;;1.92;;
61903;SDS011;47857;52.270;6.804;2022-08-11T07:42:12;3.15;;;1.73;;
61903;SDS011;47857;52.270;6.804;2022-08-11T07:44:40;3.90;;;1.80;;
61903;SDS011;47857;52.270;6.804;2022-08-11T07:47:25;4.90;;;1.80;;
61903;SDS011;47857;52.270;6.804;2022-08-11T07:50:10;3.30;;;1.70;;
61903;SDS011;47857;52.270;6.804;2022-08-11T07:52:56;4.60;;;2.05;;
61903;SDS011;47857;52.270;6.804;2022-08-11T07:55:23;3.63;;;1.70;;
61903;SDS011;47857;52.270;6.804;2022-08-11T07:57:49;6.03;;;1.90;;
61903;SDS011;47857;52.270;6.804;2022-08-11T08:00:38;6.55;;;1.80;;
61903;SDS011;47857;52.270;6.804;2022-08-11T08:03:25;5.88;;;1.98;;
61903;SDS011;47857;52.270;6.804;2022-08-11T08:06:11;4.88;;;2.05;;
61903;SDS011;47857;52.270;6.804;2022-08-11T08:08:55;6.18;;;1.80;;
61903;SDS011;47857;52.270;6.804;2022-08-11T08:11:40;7.53;;;1.90;;
61903;SDS011;47857;52.270;6.804;2022-08-11T08:14:25;4.40;;;1.70;;
61903;SDS011;47857;52.270;6.804;2022-08-11T08:17:09;3.65;;;2.10;;
61903;SDS011;47857;52.270;6.804;2022-08-11T08:19:53;4.90;;;1.80;;
61903;SDS011;47857;52.270;6.804;2022-08-11T08:22:19;6.32;;;1.90;;
61903;SDS011;47857;52.270;6.804;2022-08-11T08:24:46;5.82;;;1.85;;
61903;SDS011;47857;52.270;6.804;2022-08-11T08:27:12;7.35;;;2.10;;
61903;SDS011;47857;52.270;6.804;2022-08-11T08:29:38;5.75;;;2.20;;
61903;SDS011;47857;52.270;6.804;2022-08-11T08:32:22;8.23;;;2.33;;
61903;SDS011;47857;52.270;6.804;2022-08-11T08:34:49;4.30;;;2.50;;
61903;SDS011;47857;52.270;6.804;2022-08-11T08:37:18;7.75;;;3.55;;
61903;SDS011;47857;52.270;6.804;2022-08-11T08:39:45;7.72;;;2.58;;
61903;SDS011;47857;52.270;6.804;2022-08-11T08:42:12;8.23;;;2.33;;
61903;SDS011;47857;52.270;6.804;2022-08-11T08:44:42;4.43;;;2.50;;
61903;SDS011;47857;52.270;6.804;2022-08-11T08:47:14;6.25;;;2.40;;
61903;SDS011;47857;52.270;6.804;2022-08-11T08:49:45;4.45;;;2.10;;
61903;SDS011;47857;52.270;6.804;2022-08-11T08:52:13;5.90;;;2.33;;
61903;SDS011;47857;52.270;6.804;2022-08-11T08:54:42;6.68;;;2.42;;
61903;SDS011;47857;52.270;6.804;2022-08-11T08:57:08;3.92;;;2.35;;
61903;SDS011;47857;52.270;6.804;2022-08-11T08:59:39;5.68;;;2.25;;
61903;SDS011;47857;52.270;6.804;2022-08-11T09:02:06;7.80;;;2.50;;
61903;SDS011;47857;52.270;6.804;2022-08-11T09:04:37;5.22;;;2.03;;
61903;SDS011;47857;52.270;6.804;2022-08-11T09:07:10;7.85;;;2.28;;
61903;SDS011;47857;52.270;6.804;2022-08-11T09:09:43;5.50;;;2.65;;
61903;SDS011;47857;52.270;6.804;2022-08-11T09:12:11;4.20;;;2.35;;
61903;SDS011;47857;52.270;6.804;2022-08-11T09:14:37;4.05;;;2.15;;
61903;SDS011;47857;52.270;6.804;2022-08-11T09:17:23;4.85;;;2.50;;
61903;SDS011;47857;52.270;6.804;2022-08-11T09:19:51;6.70;;;2.25;;
61903;SDS011;47857;52.270;6.804;2022-08-11T09:22:23;6.25;;;2.35;;
61903;SDS011;47857;52.270;6.804;2022-08-11T09:25:11;8.88;;;2.30;;
61903;SDS011;47857;52.270;6.804;2022-08-11T09:27:55;6.00;;;2.65;;
61903;SDS011;47857;52.270;6.804;2022-08-11T09:30:22;5.47;;;2.60;;
61903;SDS011;47857;52.270;6.804;2022-08-11T09:32:51;6.50;;;2.40;;
61903;SDS011;47857;52.270;6.804;2022-08-11T09:35:22;5.20;;;2.42;;
61903;SDS011;47857;52.270;6.804;2022-08-11T09:37:49;7.47;;;2.72;;
61903;SDS011;47857;52.270;6.804;2022-08-11T09:40:34;7.22;;;2.90;;
61903;SDS011;47857;52.270;6.804;2022-08-11T09:43:01;4.95;;;2.63;;
61903;SDS011;47857;52.270;6.804;2022-08-11T09:45:47;6.43;;;2.42;;
61903;SDS011;47857;52.270;6.804;2022-08-11T09:48:15;3.60;;;2.45;;
61903;SDS011;47857;52.270;6.804;2022-08-11T09:50:44;5.63;;;2.53;;
61903;SDS011;47857;52.270;6.804;2022-08-11T09:53:10;6.03;;;3.55;;
61903;SDS011;47857;52.270;6.804;2022-08-11T09:55:36;6.38;;;2.30;;
61903;SDS011;47857;52.270;6.804;2022-08-11T09:58:02;6.45;;;2.22;;
61903;SDS011;47857;52.270;6.804;2022-08-11T10:00:37;7.88;;;2.15;;
61903;SDS011;47857;52.270;6.804;2022-08-11T10:05:53;4.68;;;2.30;;
61903;SDS011;47857;52.270;6.804;2022-08-11T10:08:39;6.85;;;2.28;;
61903;SDS011;47857;52.270;6.804;2022-08-11T10:11:07;4.78;;;2.25;;
61903;SDS011;47857;52.270;6.804;2022-08-11T10:13:34;4.32;;;2.03;;
61903;SDS011;47857;52.270;6.804;2022-08-11T10:16:23;6.75;;;2.42;;
61903;SDS011;47857;52.270;6.804;2022-08-11T10:18:50;6.30;;;2.03;;
61903;SDS011;47857;52.270;6.804;2022-08-11T10:21:22;4.95;;;2.20;;
61903;SDS011;47857;52.270;6.804;2022-08-11T10:23:52;3.90;;;1.98;;
61903;SDS011;47857;52.270;6.804;2022-08-11T10:26:37;4.13;;;1.83;;
61903;SDS011;47857;52.270;6.804;2022-08-11T10:32:13;4.80;;;2.50;;
61903;SDS011;47857;52.270;6.804;2022-08-11T10:35:03;4.97;;;3.33;;
61903;SDS011;47857;52.270;6.804;2022-08-11T10:37:31;4.63;;;2.10;;
61903;SDS011;47857;52.270;6.804;2022-08-11T10:40:01;5.70;;;2.90;;
61903;SDS011;47857;52.270;6.804;2022-08-11T10:42:28;3.72;;;2.40;;
61903;SDS011;47857;52.270;6.804;2022-08-11T10:45:12;5.35;;;2.10;;
61903;SDS011;47857;52.270;6.804;2022-08-11T10:47:57;3.03;;;1.90;;
61903;SDS011;47857;52.270;6.804;2022-08-11T10:50:23;6.47;;;2.17;;
61903;SDS011;47857;52.270;6.804;2022-08-11T10:53:08;5.13;;;2.30;;
61903;SDS011;47857;52.270;6.804;2022-08-11T10:55:53;5.30;;;2.20;;
61903;SDS011;47857;52.270;6.804;2022-08-11T10:58:38;4.88;;;2.10;;
61903;SDS011;47857;52.270;6.804;2022-08-11T11:01:12;8.23;;;2.03;;
61903;SDS011;47857;52.270;6.804;2022-08-11T11:03:39;5.32;;;2.00;;
61903;SDS011;47857;52.270;6.804;2022-08-11T11:08:51;5.13;;;1.90;;
61903;SDS011;47857;52.270;6.804;2022-08-11T11:11:25;7.15;;;2.30;;
61903;SDS011;47857;52.270;6.804;2022-08-11T11:14:14;4.95;;;2.00;;
61903;SDS011;47857;52.270;6.804;2022-08-11T11:16:59;4.10;;;2.05;;
61903;SDS011;47857;52.270;6.804;2022-08-11T11:19:45;3.13;;;1.63;;
61903;SDS011;47857;52.270;6.804;2022-08-11T11:22:11;4.93;;;1.92;;
61903;SDS011;47857;52.270;6.804;2022-08-11T11:25:00;4.45;;;2.00;;
61903;SDS011;47857;52.270;6.804;2022-08-11T11:30:34;3.20;;;1.70;;
61903;SDS011;47857;52.270;6.804;2022-08-11T11:33:10;2.85;;;1.70;;
61903;SDS011;47857;52.270;6.804;2022-08-11T11:35:52;5.18;;;1.88;;
61903;SDS011;47857;52.270;6.804;2022-08-11T11:38:24;3.83;;;1.75;;
61903;SDS011;47857;52.270;6.804;2022-08-11T11:40:49;4.35;;;1.85;;
61903;SDS011;47857;52.270;6.804;2022-08-11T11:43:35;5.55;;;1.70;;
61903;SDS011;47857;52.270;6.804;2022-08-11T11:46:01;4.10;;;1.85;;
61903;SDS011;47857;52.270;6.804;2022-08-11T11:48:29;2.45;;;1.80;;
61903;SDS011;47857;52.270;6.804;2022-08-11T11:50:55;10.05;;;1.80;;
61903;SDS011;47857;52.270;6.804;2022-08-11T11:53:21;3.63;;;1.90;;
61903;SDS011;47857;52.270;6.804;2022-08-11T11:55:47;4.32;;;2.00;;
61903;SDS011;47857;52.270;6.804;2022-08-11T11:58:12;3.00;;;1.55;;
61903;SDS011;47857;52.270;6.804;2022-08-11T12:00:57;5.55;;;1.85;;
61903;SDS011;47857;52.270;6.804;2022-08-11T12:03:40;8.52;;;2.30;;
61903;SDS011;47857;52.270;6.804;2022-08-11T12:06:08;4.65;;;1.60;;
61903;SDS011;47857;52.270;6.804;2022-08-11T12:08:38;4.75;;;1.70;;
61903;SDS011;47857;52.270;6.804;2022-08-11T12:11:04;3.53;;;1.58;;
61903;SDS011;47857;52.270;6.804;2022-08-11T12:13:53;4.45;;;1.80;;
61903;SDS011;47857;52.270;6.804;2022-08-11T12:16:22;3.17;;;1.60;;
61903;SDS011;47857;52.270;6.804;2022-08-11T12:18:49;4.13;;;1.70;;
61903;SDS011;47857;52.270;6.804;2022-08-11T12:21:17;2.90;;;1.92;;
61903;SDS011;47857;52.270;6.804;2022-08-11T12:23:43;3.42;;;1.80;;
61903;SDS011;47857;52.270;6.804;2022-08-11T12:26:28;3.78;;;1.60;;
61903;SDS011;47857;52.270;6.804;2022-08-11T12:29:23;3.35;;;1.70;;
61903;SDS011;47857;52.270;6.804;2022-08-11T12:31:53;7.18;;;1.70;;
61903;SDS011;47857;52.270;6.804;2022-08-11T12:34:19;5.35;;;1.73;;
61903;SDS011;47857;52.270;6.804;2022-08-11T12:36:48;3.47;;;1.90;;
61903;SDS011;47857;52.270;6.804;2022-08-11T12:39:19;5.65;;;2.03;;
61903;SDS011;47857;52.270;6.804;2022-08-11T12:42:05;3.40;;;1.60;;
61903;SDS011;47857;52.270;6.804;2022-08-11T12:44:53;5.55;;;1.70;;
61903;SDS011;47857;52.270;6.804;2022-08-11T12:47:38;3.45;;;1.45;;
61903;SDS011;47857;52.270;6.804;2022-08-11T12:50:24;5.30;;;1.58;;
61903;SDS011;47857;52.270;6.804;2022-08-11T12:53:29;4.60;;;1.70;;
61903;SDS011;47857;52.270;6.804;2022-08-11T12:55:56;3.88;;;1.60;;
61903;SDS011;47857;52.270;6.804;2022-08-11T12:58:46;3.63;;;1.60;;
61903;SDS011;47857;52.270;6.804;2022-08-11T13:01:13;5.82;;;1.70;;
61903;SDS011;47857;52.270;6.804;2022-08-11T13:03:58;3.90;;;1.70;;
61903;SDS011;47857;52.270;6.804;2022-08-11T13:06:42;2.58;;;1.40;;
61903;SDS011;47857;52.270;6.804;2022-08-11T13:09:07;5.00;;;1.85;;
61903;SDS011;47857;52.270;6.804;2022-08-11T13:11:34;6.30;;;1.90;;
61903;SDS011;47857;52.270;6.804;2022-08-11T13:14:19;3.45;;;1.63;;
61903;SDS011;47857;52.270;6.804;2022-08-11T13:16:45;2.25;;;1.65;;
61903;SDS011;47857;52.270;6.804;2022-08-11T13:19:30;7.30;;;1.88;;
61903;SDS011;47857;52.270;6.804;2022-08-11T13:21:55;2.80;;;1.80;;
61903;SDS011;47857;52.270;6.804;2022-08-11T13:24:21;2.20;;;1.58;;
61903;SDS011;47857;52.270;6.804;2022-08-11T13:26:47;3.55;;;1.50;;
61903;SDS011;47857;52.270;6.804;2022-08-11T13:29:21;4.38;;;1.85;;
61903;SDS011;47857;52.270;6.804;2022-08-11T13:31:48;3.30;;;1.60;;
61903;SDS011;47857;52.270;6.804;2022-08-11T13:34:15;4.57;;;1.50;;
61903;SDS011;47857;52.270;6.804;2022-08-11T13:36:41;2.65;;;1.60;;
61903;SDS011;47857;52.270;6.804;2022-08-11T13:39:06;3.10;;;1.45;;
61903;SDS011;47857;52.270;6.804;2022-08-11T13:41:33;4.35;;;1.77;;
61903;SDS011;47857;52.270;6.804;2022-08-11T13:44:12;5.07;;;1.67;;
61903;SDS011;47857;52.270;6.804;2022-08-11T13:46:41;3.80;;;1.55;;
61903;SDS011;47857;52.270;6.804;2022-08-11T13:49:08;3.17;;;1.70;;
61903;SDS011;47857;52.270;6.804;2022-08-11T13:51:35;5.03;;;1.65;;
61903;SDS011;47857;52.270;6.804;2022-08-11T13:54:06;5.68;;;1.60;;
61903;SDS011;47857;52.270;6.804;2022-08-11T13:56:35;3.67;;;1.60;;
61903;SDS011;47857;52.270;6.804;2022-08-11T13:59:04;6.43;;;1.90;;
61903;SDS011;47857;52.270;6.804;2022-08-11T14:01:33;1.95;;;1.50;;
61903;SDS011;47857;52.270;6.804;2022-08-11T14:04:08;5.05;;;1.52;;
61903;SDS011;47857;52.270;6.804;2022-08-11T14:08:57;4.17;;;1.40;;
61903;SDS011;47857;52.270;6.804;2022-08-11T14:11:23;2.65;;;1.33;;
61903;SDS011;47857;52.270;6.804;2022-08-11T14:14:08;4.13;;;1.70;;
61903;SDS011;47857;52.270;6.804;2022-08-11T14:16:39;6.03;;;1.60;;
61903;SDS011;47857;52.270;6.804;2022-08-11T14:19:10;6.03;;;1.50;;
61903;SDS011;47857;52.270;6.804;2022-08-11T14:21:39;2.75;;;1.58;;
61903;SDS011;47857;52.270;6.804;2022-08-11T14:24:25;4.07;;;1.55;;
61903;SDS011;47857;52.270;6.804;2022-08-11T14:26:51;3.45;;;1.60;;
61903;SDS011;47857;52.270;6.804;2022-08-11T14:29:20;2.15;;;1.42;;
61903;SDS011;47857;52.270;6.804;2022-08-11T14:31:53;2.17;;;1.42;;
61903;SDS011;47857;52.270;6.804;2022-08-11T14:34:21;3.08;;;1.40;;
61903;SDS011;47857;52.270;6.804;2022-08-11T14:36:51;4.25;;;1.65;;
61903;SDS011;47857;52.270;6.804;2022-08-11T14:39:20;5.32;;;1.40;;
61903;SDS011;47857;52.270;6.804;2022-08-11T14:41:54;4.15;;;1.48;;
61903;SDS011;47857;52.270;6.804;2022-08-11T14:44:44;4.32;;;1.50;;
61903;SDS011;47857;52.270;6.804;2022-08-11T14:47:30;6.00;;;1.60;;
61903;SDS011;47857;52.270;6.804;2022-08-11T14:49:57;2.25;;;1.40;;
61903;SDS011;47857;52.270;6.804;2022-08-11T14:52:24;1.83;;;1.42;;
61903;SDS011;47857;52.270;6.804;2022-08-11T14:54:51;1.90;;;1.50;;
61903;SDS011;47857;52.270;6.804;2022-08-11T14:57:37;4.28;;;1.40;;
61903;SDS011;47857;52.270;6.804;2022-08-11T15:00:05;62.80;;;29.98;;
61903;SDS011;47857;52.270;6.804;2022-08-11T15:02:32;73.97;;;34.42;;
61903;SDS011;47857;52.270;6.804;2022-08-11T15:05:19;46.85;;;21.38;;
61903;SDS011;47857;52.270;6.804;2022-08-11T15:07:45;37.08;;;18.90;;
61903;SDS011;47857;52.270;6.804;2022-08-11T15:10:10;25.63;;;10.88;;
61903;SDS011;47857;52.270;6.804;2022-08-11T15:12:40;17.65;;;9.27;;
61903;SDS011;47857;52.270;6.804;2022-08-11T15:15:06;34.95;;;17.30;;
61903;SDS011;47857;52.270;6.804;2022-08-11T15:17:52;48.15;;;25.98;;
61903;SDS011;47857;52.270;6.804;2022-08-11T15:20:18;28.02;;;13.60;;
61903;SDS011;47857;52.270;6.804;2022-08-11T15:23:03;22.45;;;9.20;;
61903;SDS011;47857;52.270;6.804;2022-08-11T15:25:49;37.95;;;17.40;;
61903;SDS011;47857;52.270;6.804;2022-08-11T15:28:18;20.80;;;9.32;;
61903;SDS011;47857;52.270;6.804;2022-08-11T15:31:03;19.45;;;10.00;;
61903;SDS011;47857;52.270;6.804;2022-08-11T15:33:47;29.40;;;15.23;;
61903;SDS011;47857;52.270;6.804;2022-08-11T15:36:35;10.13;;;5.50;;
61903;SDS011;47857;52.270;6.804;2022-08-11T15:39:22;16.50;;;7.95;;
61903;SDS011;47857;52.270;6.804;2022-08-11T15:45:02;13.15;;;5.45;;
61903;SDS011;47857;52.270;6.804;2022-08-11T15:47:58;11.57;;;5.35;;
61903;SDS011;47857;52.270;6.804;2022-08-11T15:50:29;9.32;;;3.95;;
61903;SDS011;47857;52.270;6.804;2022-08-11T15:52:55;8.32;;;3.55;;
61903;SDS011;47857;52.270;6.804;2022-08-11T15:55:23;7.07;;;2.67;;
61903;SDS011;47857;52.270;6.804;2022-08-11T15:57:50;7.95;;;3.42;;
61903;SDS011;47857;52.270;6.804;2022-08-11T16:00:36;5.20;;;2.63;;
61903;SDS011;47857;52.270;6.804;2022-08-11T16:03:21;10.20;;;2.28;;
61903;SDS011;47857;52.270;6.804;2022-08-11T16:06:07;5.30;;;3.00;;
61903;SDS011;47857;52.270;6.804;2022-08-11T16:08:33;4.63;;;2.53;;
61903;SDS011;47857;52.270;6.804;2022-08-11T16:10:59;3.17;;;2.00;;
61903;SDS011;47857;52.270;6.804;2022-08-11T16:13:25;6.40;;;3.42;;
61903;SDS011;47857;52.270;6.804;2022-08-11T16:15:52;6.63;;;2.25;;
61903;SDS011;47857;52.270;6.804;2022-08-11T16:18:47;3.80;;;2.25;;
61903;SDS011;47857;52.270;6.804;2022-08-11T16:21:17;5.35;;;2.47;;
61903;SDS011;47857;52.270;6.804;2022-08-11T16:24:14;6.07;;;2.13;;
61903;SDS011;47857;52.270;6.804;2022-08-11T16:26:41;2.97;;;1.77;;
61903;SDS011;47857;52.270;6.804;2022-08-11T16:29:09;6.50;;;2.30;;
61903;SDS011;47857;52.270;6.804;2022-08-11T16:31:35;3.58;;;1.85;;
61903;SDS011;47857;52.270;6.804;2022-08-11T16:34:02;6.50;;;1.95;;
61903;SDS011;47857;52.270;6.804;2022-08-11T16:36:28;4.20;;;3.28;;
61903;SDS011;47857;52.270;6.804;2022-08-11T16:39:13;4.88;;;3.05;;
61903;SDS011;47857;52.270;6.804;2022-08-11T16:41:42;8.57;;;3.00;;
61903;SDS011;47857;52.270;6.804;2022-08-11T16:44:27;7.50;;;2.63;;
61903;SDS011;47857;52.270;6.804;2022-08-11T16:47:15;6.63;;;3.40;;
61903;SDS011;47857;52.270;6.804;2022-08-11T16:49:43;4.72;;;1.90;;
61903;SDS011;47857;52.270;6.804;2022-08-11T16:52:11;3.78;;;1.85;;
61903;SDS011;47857;52.270;6.804;2022-08-11T16:54:38;8.23;;;1.98;;
61903;SDS011;47857;52.270;6.804;2022-08-11T16:57:09;6.00;;;1.70;;
61903;SDS011;47857;52.270;6.804;2022-08-11T16:59:56;2.20;;;1.50;;
61903;SDS011;47857;52.270;6.804;2022-08-11T17:02:23;7.53;;;1.75;;
61903;SDS011;47857;52.270;6.804;2022-08-11T17:05:11;5.22;;;1.50;;
61903;SDS011;47857;52.270;6.804;2022-08-11T17:08:00;1.50;;;1.40;;
61903;SDS011;47857;52.270;6.804;2022-08-11T17:10:50;8.18;;;1.75;;
61903;SDS011;47857;52.270;6.804;2022-08-11T17:13:39;3.95;;;1.73;;
61903;SDS011;47857;52.270;6.804;2022-08-11T17:16:09;4.05;;;1.45;;
61903;SDS011;47857;52.270;6.804;2022-08-11T17:21:15;5.60;;;1.55;;
61903;SDS011;47857;52.270;6.804;2022-08-11T17:23:48;1.80;;;1.20;;
61903;SDS011;47857;52.270;6.804;2022-08-11T17:26:21;4.00;;;1.30;;
61903;SDS011;47857;52.270;6.804;2022-08-11T17:28:51;4.43;;;1.60;;
61903;SDS011;47857;52.270;6.804;2022-08-11T17:31:20;4.40;;;1.40;;
61903;SDS011;47857;52.270;6.804;2022-08-11T17:34:06;4.95;;;1.60;;
61903;SDS011;47857;52.270;6.804;2022-08-11T17:36:52;2.97;;;1.55;;
61903;SDS011;47857;52.270;6.804;2022-08-11T17:39:18;2.08;;;1.40;;
61903;SDS011;47857;52.270;6.804;2022-08-11T17:41:44;2.83;;;1.20;;
61903;SDS011;47857;52.270;6.804;2022-08-11T17:44:28;5.30;;;1.30;;
61903;SDS011;47857;52.270;6.804;2022-08-11T17:47:12;2.38;;;1.40;;
61903;SDS011;47857;52.270;6.804;2022-08-11T17:49:57;4.18;;;1.20;;
61903;SDS011;47857;52.270;6.804;2022-08-11T17:52:23;4.90;;;1.38;;
61903;SDS011;47857;52.270;6.804;2022-08-11T17:55:07;5.57;;;1.27;;
61903;SDS011;47857;52.270;6.804;2022-08-11T17:57:52;5.93;;;1.40;;
61903;SDS011;47857;52.270;6.804;2022-08-11T18:00:37;3.55;;;1.20;;
61903;SDS011;47857;52.270;6.804;2022-08-11T18:03:03;3.25;;;1.35;;
61903;SDS011;47857;52.270;6.804;2022-08-11T18:06:09;4.38;;;1.33;;
61903;SDS011;47857;52.270;6.804;2022-08-11T18:08:36;2.78;;;1.40;;
61903;SDS011;47857;52.270;6.804;2022-08-11T18:11:23;4.85;;;1.30;;
61903;SDS011;47857;52.270;6.804;2022-08-11T18:14:08;3.75;;;1.50;;
61903;SDS011;47857;52.270;6.804;2022-08-11T18:16:53;3.45;;;1.50;;
61903;SDS011;47857;52.270;6.804;2022-08-11T18:19:37;2.70;;;1.80;;
61903;SDS011;47857;52.270;6.804;2022-08-11T18:25:00;5.00;;;1.65;;
61903;SDS011;47857;52.270;6.804;2022-08-11T18:30:33;3.38;;;1.50;;
61903;SDS011;47857;52.270;6.804;2022-08-11T18:33:19;2.60;;;1.40;;
61903;SDS011;47857;52.270;6.804;2022-08-11T18:36:05;3.35;;;1.40;;
61903;SDS011;47857;52.270;6.804;2022-08-11T18:38:50;4.50;;;1.33;;
61903;SDS011;47857;52.270;6.804;2022-08-11T18:41:35;5.18;;;1.50;;
61903;SDS011;47857;52.270;6.804;2022-08-11T18:44:22;4.35;;;1.50;;
61903;SDS011;47857;52.270;6.804;2022-08-11T18:47:09;3.03;;;1.45;;
61903;SDS011;47857;52.270;6.804;2022-08-11T18:49:54;4.07;;;1.65;;
61903;SDS011;47857;52.270;6.804;2022-08-11T18:52:43;4.65;;;1.40;;
61903;SDS011;47857;52.270;6.804;2022-08-11T18:55:28;2.58;;;1.45;;
61903;SDS011;47857;52.270;6.804;2022-08-11T18:58:14;4.55;;;1.55;;
61903;SDS011;47857;52.270;6.804;2022-08-11T19:01:00;5.22;;;1.50;;
61903;SDS011;47857;52.270;6.804;2022-08-11T19:03:44;4.30;;;1.58;;
61903;SDS011;47857;52.270;6.804;2022-08-11T19:06:30;3.53;;;1.30;;
61903;SDS011;47857;52.270;6.804;2022-08-11T19:09:16;3.28;;;1.40;;
61903;SDS011;47857;52.270;6.804;2022-08-11T19:12:00;5.07;;;1.60;;
61903;SDS011;47857;52.270;6.804;2022-08-11T19:14:47;3.03;;;1.50;;
61903;SDS011;47857;52.270;6.804;2022-08-11T19:17:33;2.67;;;1.42;;